Time;durP1;ratioP1;P1;durP2;ratioP2;P2;SDS_P1;SDS_P2;PMS_P1;PMS_P2;Temp;Humidity;BMP_temperature;BMP_pressure;BME280_temperature;BME280_humidity;BME280_pressure;Samples;Min_cycle;Max_cycle;Signal;HPM_P1;HPM_P2
2024/01/30 00:00:09;;;;;;;40.10;20.63;;;;;;;0.23;73.89;103072.75;122700;1102;104383;-76
2024/01/30 00:03:03;;;;;;;38.90;20.10;;;;;;;0.16;73.89;103076.28;122724;1103;104284;-75
2024/01/30 00:05:34;;;;;;;39.93;20.03;;;;;;;0.11;74.04;103070.57;122720;1102;104371;-76
2024/01/30 00:08:06;;;;;;;40.63;21.53;;;;;;;0.07;73.34;103073.52;122659;1102;104316;-76
2024/01/30 00:10:38;;;;;;;44.53;22.43;;;;;;;0.12;74.20;103071.48;122709;1102;104373;-75
2024/01/30 00:13:09;;;;;;;44.23;21.53;;;;;;;0.17;73.88;103067.77;122760;1102;104370;-76
2024/01/30 00:15:40;;;;;;;44.55;21.70;;;;;;;0.22;74.24;103066.69;122712;1102;104412;-76
2024/01/30 00:18:11;;;;;;;38.83;19.57;;;;;;;0.27;74.25;103062.97;122686;1105;104392;-76
2024/01/30 00:20:43;;;;;;;37.23;19.50;;;;;;;0.32;73.82;103059.26;122691;1103;104284;-75
2024/01/30 00:23:14;;;;;;;40.47;20.60;;;;;;;0.37;74.17;103057.22;122795;1102;104258;-75
2024/01/30 00:25:45;;;;;;;38.07;19.13;;;;;;;0.36;73.71;103063.15;122875;1105;104386;-76
2024/01/30 00:28:16;;;;;;;37.53;18.23;;;;;;;0.32;74.11;103063.52;122644;1102;104362;-75
2024/01/30 00:30:47;;;;;;;37.05;18.20;;;;;;;0.30;73.65;103060.75;122709;1102;104286;-76
2024/01/30 00:33:18;;;;;;;36.63;17.77;;;;;;;0.30;74.51;103045.25;122765;1103;104303;-76
2024/01/30 00:35:50;;;;;;;33.33;17.33;;;;;;;0.25;73.87;103043.80;122678;1105;104257;-76
2024/01/30 00:38:21;;;;;;;33.87;17.17;;;;;;;0.21;73.95;103058.75;122750;1102;104389;-76
2024/01/30 00:40:52;;;;;;;33.60;17.00;;;;;;;0.18;73.61;103054.13;122704;1102;104258;-76
2024/01/30 00:43:24;;;;;;;34.47;17.60;;;;;;;0.17;73.84;103052.28;122781;1102;104283;-76
2024/01/30 00:45:55;;;;;;;36.43;18.90;;;;;;;0.13;74.14;103050.09;122921;1102;104415;-75
2024/01/30 00:48:27;;;;;;;37.60;18.63;;;;;;;0.08;74.18;103051.19;122720;1103;104283;-76
2024/01/30 00:50:58;;;;;;;42.50;20.30;;;;;;;0.04;74.07;103049.91;122783;1105;104287;-75
2024/01/30 00:53:29;;;;;;;42.37;21.60;;;;;;;-0.01;73.78;103058.78;122729;1105;104773;-75
2024/01/30 00:56:00;;;;;;;44.40;22.50;;;;;;;-0.08;73.76;103057.14;122714;1105;104299;-75
2024/01/30 00:58:31;;;;;;;45.00;21.93;;;;;;;-0.14;74.07;103060.63;122681;1102;113547;-75
2024/01/30 01:01:03;;;;;;;43.60;21.97;;;;;;;-0.21;74.10;103056.40;122742;1102;104309;-76
2024/01/30 01:03:34;;;;;;;40.77;21.63;;;;;;;-0.28;74.24;103053.81;122808;1102;104335;-76
2024/01/30 01:06:06;;;;;;;41.13;20.30;;;;;;;-0.33;73.80;103060.09;122729;1102;104285;-76
2024/01/30 01:08:37;;;;;;;41.53;20.37;;;;;;;-0.34;73.83;103060.81;122747;1102;105623;-76
2024/01/30 01:11:09;;;;;;;39.43;19.47;;;;;;;-0.34;74.32;103054.02;122705;1102;104288;-76
2024/01/30 01:13:40;;;;;;;35.30;17.73;;;;;;;-0.36;74.45;103055.47;122734;1102;104251;-76
2024/01/30 01:16:11;;;;;;;35.07;17.20;;;;;;;-0.41;74.09;103054.91;122851;1102;104335;-75
2024/01/30 01:18:43;;;;;;;34.80;17.37;;;;;;;-0.43;74.32;103058.97;122684;1104;104370;-76
2024/01/30 01:21:14;;;;;;;35.23;16.93;;;;;;;-0.44;73.58;103059.70;122768;1102;104251;-76
2024/01/30 01:23:45;;;;;;;37.07;19.03;;;;;;;-0.43;74.05;103058.97;122783;1102;104284;-76
2024/01/30 01:26:16;;;;;;;33.77;17.00;;;;;;;-0.45;73.77;103065.62;122743;1102;104249;-77
2024/01/30 01:28:48;;;;;;;38.57;19.60;;;;;;;-0.46;73.87;103058.60;122744;1102;104325;-76
2024/01/30 01:31:19;;;;;;;38.35;18.50;;;;;;;-0.49;73.68;103068.55;122679;1102;104284;-76
2024/01/30 01:33:50;;;;;;;38.57;18.43;;;;;;;-0.50;74.29;103064.12;122786;1102;104360;-76
2024/01/30 01:36:21;;;;;;;36.87;18.20;;;;;;;-0.49;74.26;103060.81;122688;1105;104376;-75
2024/01/30 01:38:52;;;;;;;34.30;17.53;;;;;;;-0.50;73.88;103058.95;122674;1102;104355;-76
2024/01/30 01:41:23;;;;;;;39.77;19.63;;;;;;;-0.56;74.18;103059.16;122703;1102;104350;-76
2024/01/30 01:43:55;;;;;;;37.43;19.10;;;;;;;-0.60;74.06;103053.44;122716;1105;104380;-76
2024/01/30 01:46:27;;;;;;;35.87;16.57;;;;;;;-0.63;74.70;103065.96;122694;1105;104293;-76
2024/01/30 01:48:59;;;;;;;37.13;17.23;;;;;;;-0.68;74.73;103056.75;122670;1104;104723;-75
2024/01/30 01:51:32;;;;;;;35.53;16.67;;;;;;;-0.74;74.81;103059.50;122696;1103;104238;-76
2024/01/30 01:54:06;;;;;;;35.27;16.47;;;;;;;-0.73;74.81;103063.93;122851;1103;104181;-76
2024/01/30 01:56:38;;;;;;;34.03;17.27;;;;;;;-0.76;74.66;103056.73;122697;1105;104238;-76
2024/01/30 01:59:10;;;;;;;34.37;15.40;;;;;;;-0.79;75.25;103063.17;122979;1102;104661;-75
2024/01/30 02:01:43;;;;;;;35.67;17.40;;;;;;;-0.81;75.18;103062.05;122731;1105;104284;-74
2024/01/30 02:04:14;;;;;;;31.25;15.50;;;;;;;-0.88;74.39;103055.23;122781;1104;104186;-75
2024/01/30 02:06:45;;;;;;;34.17;16.37;;;;;;;-0.94;74.62;103057.05;122715;1102;104437;-75
2024/01/30 02:09:16;;;;;;;34.35;16.35;;;;;;;-0.97;74.60;103061.83;122638;1102;104290;-75
2024/01/30 02:11:47;;;;;;;32.80;17.33;;;;;;;-0.99;74.96;103059.06;122719;1102;104374;-75
2024/01/30 02:14:19;;;;;;;37.35;17.75;;;;;;;-1.07;74.51;103057.20;122685;1102;104670;-75
2024/01/30 02:16:50;;;;;;;36.73;17.77;;;;;;;-1.14;75.28;103049.44;122726;1102;104290;-76
2024/01/30 02:19:21;;;;;;;31.60;16.05;;;;;;;-1.22;74.87;103060.47;122687;1102;104328;-76
2024/01/30 02:21:53;;;;;;;38.87;19.17;;;;;;;-1.28;74.57;103050.31;122688;1102;104357;-76
2024/01/30 02:24:24;;;;;;;38.10;17.80;;;;;;;-1.36;74.70;103048.45;122750;1102;104290;-76
2024/01/30 02:26:55;;;;;;;35.17;17.27;;;;;;;-1.47;75.12;103055.74;122741;1102;104299;-76
2024/01/30 02:29:27;;;;;;;32.83;15.93;;;;;;;-1.54;74.23;103052.21;122749;1102;104297;-76
2024/01/30 02:31:58;;;;;;;33.63;16.27;;;;;;;-1.58;74.31;103060.30;122726;1102;104428;-77
2024/01/30 02:34:29;;;;;;;39.60;17.30;;;;;;;-1.63;74.65;103054.58;122668;1102;104337;-75
2024/01/30 02:37:01;;;;;;;35.57;16.17;;;;;;;-1.67;74.41;103050.70;122919;1105;104814;-76
2024/01/30 02:39:32;;;;;;;32.90;16.37;;;;;;;-1.71;75.15;103056.19;122989;1102;104364;-76
2024/01/30 02:42:03;;;;;;;34.80;16.87;;;;;;;-1.72;75.23;103053.42;122747;1105;104357;-76
2024/01/30 02:44:34;;;;;;;36.60;17.30;;;;;;;-1.75;74.83;103051.38;122845;1102;104483;-76
2024/01/30 02:47:06;;;;;;;32.37;15.83;;;;;;;-1.74;74.71;103047.17;122682;1102;104293;-76
2024/01/30 02:49:37;;;;;;;33.73;15.37;;;;;;;-1.73;74.98;103056.72;122649;1102;104284;-76
2024/01/30 02:52:08;;;;;;;34.80;16.33;;;;;;;-1.81;75.76;103051.55;122745;1102;104341;-77
2024/01/30 02:54:39;;;;;;;34.23;17.03;;;;;;;-1.87;74.97;103054.97;122758;1102;104357;-76
2024/01/30 02:57:10;;;;;;;33.20;15.77;;;;;;;-1.91;75.21;103045.95;122698;1102;104696;-76
2024/01/30 02:59:41;;;;;;;31.93;15.53;;;;;;;-1.90;74.51;103045.23;122798;1102;104223;-76
2024/01/30 03:02:12;;;;;;;30.03;14.90;;;;;;;-1.88;75.09;103042.86;122672;1102;104373;-75
2024/01/30 03:04:45;;;;;;;30.80;15.67;;;;;;;-1.89;75.53;103035.84;122649;1102;104399;-76
2024/01/30 03:07:16;;;;;;;35.53;15.87;;;;;;;-1.92;74.94;103038.03;122825;1103;104204;-76
2024/01/30 03:09:48;;;;;;;37.80;16.93;;;;;;;-1.97;75.63;103044.27;122651;1102;104704;-75
2024/01/30 03:12:19;;;;;;;31.37;15.07;;;;;;;-1.96;75.36;103048.66;122756;1102;104719;-76
2024/01/30 03:14:50;;;;;;;33.90;15.50;;;;;;;-1.92;75.55;103043.18;122760;1102;104392;-76
2024/01/30 03:17:21;;;;;;;33.93;15.93;;;;;;;-1.92;75.98;103049.23;122734;1102;104351;-76
2024/01/30 03:19:53;;;;;;;33.83;15.13;;;;;;;-1.98;75.60;103051.04;122709;1102;104280;-76
2024/01/30 03:22:24;;;;;;;34.33;16.87;;;;;;;-2.04;75.20;103051.20;122692;1102;104392;-76
2024/01/30 03:24:55;;;;;;;34.87;15.93;;;;;;;-2.11;75.26;103047.66;122829;1102;104706;-76
2024/01/30 03:27:26;;;;;;;31.70;15.85;;;;;;;-2.18;74.56;103043.39;122705;1102;104664;-76
2024/01/30 03:29:57;;;;;;;35.70;16.07;;;;;;;-2.22;75.88;103043.71;122704;1102;104274;-76
2024/01/30 03:32:28;;;;;;;33.73;16.23;;;;;;;-2.26;75.85;103044.98;122802;1102;104367;-76
2024/01/30 03:35:00;;;;;;;35.20;16.07;;;;;;;-2.28;75.17;103041.27;122801;1102;104424;-76
2024/01/30 03:37:32;;;;;;;35.43;17.47;;;;;;;-2.31;75.17;103043.45;122649;1102;104261;-76
2024/01/30 03:40:04;;;;;;;32.07;15.23;;;;;;;-2.33;75.24;103038.86;122711;1105;104357;-77
2024/01/30 03:42:35;;;;;;;33.97;16.03;;;;;;;-2.36;75.46;103036.80;122653;1105;104232;-76
2024/01/30 03:45:08;;;;;;;32.33;15.03;;;;;;;-2.35;76.46;103036.09;122739;1102;104302;-77
2024/01/30 03:47:40;;;;;;;33.73;16.10;;;;;;;-2.44;75.06;103030.68;122740;1102;104261;-77
2024/01/30 03:50:11;;;;;;;34.37;17.33;;;;;;;-2.54;75.66;103041.44;122741;1102;104185;-77
2024/01/30 03:52:43;;;;;;;35.43;16.60;;;;;;;-2.62;74.82;103036.93;122749;1102;104641;-76
2024/01/30 03:55:14;;;;;;;33.83;16.03;;;;;;;-2.65;75.54;103036.58;122802;1102;104364;-76
2024/01/30 03:57:45;;;;;;;32.60;15.30;;;;;;;-2.67;75.00;103038.00;122815;1102;104280;-77
2024/01/30 04:00:17;;;;;;;34.10;16.13;;;;;;;-2.71;74.91;103038.34;122714;1103;104337;-76
2024/01/30 04:02:51;;;;;;;33.97;16.83;;;;;;;-2.75;75.35;103030.95;122701;1102;104309;-77
2024/01/30 04:05:22;;;;;;;37.23;16.20;;;;;;;-2.75;75.62;103034.44;122714;1102;104248;-76
2024/01/30 04:07:53;;;;;;;35.03;15.97;;;;;;;-2.73;76.36;103032.06;122938;1102;104217;-76
2024/01/30 04:10:25;;;;;;;32.40;14.67;;;;;;;-2.76;76.83;103031.67;122846;1102;105598;-76
2024/01/30 04:12:56;;;;;;;31.27;15.67;;;;;;;-2.80;76.86;103040.64;122904;1104;104386;-75
2024/01/30 04:15:27;;;;;;;34.93;16.20;;;;;;;-2.81;75.54;103035.30;122814;1105;104284;-75
2024/01/30 04:18:03;;;;;;;33.00;16.15;;;;;;;-2.84;76.16;103024.62;122774;1103;104258;-76
2024/01/30 04:20:34;;;;;;;33.57;15.47;;;;;;;-2.86;76.61;103020.94;122700;1103;104233;-77
2024/01/30 04:23:05;;;;;;;32.03;16.10;;;;;;;-2.86;76.94;103023.52;122770;1105;104249;-76
2024/01/30 04:25:37;;;;;;;36.13;17.60;;;;;;;-2.86;76.62;103031.22;122712;1102;104340;-76
2024/01/30 04:28:08;;;;;;;36.27;16.80;;;;;;;-2.90;75.96;103028.25;122777;1103;104360;-76
2024/01/30 04:30:39;;;;;;;31.70;15.07;;;;;;;-2.89;76.51;103030.08;122831;1102;104251;-77
2024/01/30 04:33:11;;;;;;;35.63;16.23;;;;;;;-2.84;76.51;103032.33;123118;1102;104268;-76
2024/01/30 04:35:42;;;;;;;30.80;14.93;;;;;;;-2.83;77.75;103029.05;123181;1102;104277;-76
2024/01/30 04:38:14;;;;;;;33.53;15.83;;;;;;;-2.82;77.00;103030.87;122835;1105;104332;-76
2024/01/30 04:40:45;;;;;;;34.47;15.50;;;;;;;-2.84;76.66;103029.76;122728;1102;105644;-76
2024/01/30 04:43:16;;;;;;;34.80;16.10;;;;;;;-2.88;76.60;103025.88;122962;1102;104332;-76
2024/01/30 04:45:47;;;;;;;38.27;17.60;;;;;;;-2.89;76.73;103034.30;122823;1105;104338;-76
2024/01/30 04:48:19;;;;;;;38.77;17.93;;;;;;;-2.94;76.18;103041.41;122761;1104;104313;-76
2024/01/30 04:50:50;;;;;;;34.83;17.87;;;;;;;-2.97;76.75;103035.88;122721;1105;104322;-76
2024/01/30 04:53:21;;;;;;;36.00;17.77;;;;;;;-2.97;77.56;103045.23;122744;1102;107003;-76
2024/01/30 04:55:52;;;;;;;42.90;19.50;;;;;;;-3.01;77.12;103038.75;122726;1105;104331;-76
2024/01/30 04:58:23;;;;;;;41.30;19.10;;;;;;;-3.07;75.91;103040.52;122779;1102;104281;-76
2024/01/30 05:00:54;;;;;;;39.17;17.93;;;;;;;-3.13;76.29;103039.72;122780;1102;104366;-75
2024/01/30 05:03:25;;;;;;;36.23;16.83;;;;;;;-3.13;77.24;103042.28;122847;1102;118321;-75
2024/01/30 05:05:57;;;;;;;39.23;19.40;;;;;;;-3.14;76.63;103041.38;122805;1102;104233;-76
2024/01/30 05:08:28;;;;;;;40.83;19.50;;;;;;;-3.18;76.55;103041.71;122787;1102;104380;-75
2024/01/30 05:11:01;;;;;;;37.47;18.40;;;;;;;-3.22;76.52;103047.16;122758;1103;104390;-75
2024/01/30 05:13:34;;;;;;;37.10;18.37;;;;;;;-3.24;76.63;103048.61;122882;1105;104366;-77
2024/01/30 05:16:06;;;;;;;37.65;18.10;;;;;;;-3.28;76.53;103054.96;122818;1102;104511;-76
2024/01/30 05:18:37;;;;;;;39.75;19.20;;;;;;;-3.35;77.26;103052.33;122704;1102;104278;-76
2024/01/30 05:21:09;;;;;;;36.53;17.73;;;;;;;-3.41;77.49;103056.65;122771;1102;104354;-75
2024/01/30 05:23:41;;;;;;;38.83;18.80;;;;;;;-3.46;76.68;103063.74;122767;1102;104249;-75
2024/01/30 05:26:12;;;;;;;33.87;17.20;;;;;;;-3.54;76.67;103060.86;122773;1102;104284;-75
2024/01/30 05:28:44;;;;;;;37.60;17.60;;;;;;;-3.54;77.01;103055.73;122932;1105;104460;-75
2024/01/30 05:31:16;;;;;;;34.87;16.60;;;;;;;-3.57;76.79;103060.45;123137;1102;104254;-75
2024/01/30 05:33:47;;;;;;;39.20;18.70;;;;;;;-3.63;76.77;103069.20;122801;1102;104248;-76
2024/01/30 05:36:18;;;;;;;38.50;18.80;;;;;;;-3.67;77.43;103078.84;122741;1105;104353;-76
2024/01/30 05:38:49;;;;;;;39.00;18.17;;;;;;;-3.71;77.30;103081.70;123061;1105;104251;-76
2024/01/30 05:41:22;;;;;;;37.07;18.00;;;;;;;-3.71;77.48;103082.66;122881;1103;104252;-76
2024/01/30 05:43:53;;;;;;;39.77;18.73;;;;;;;-3.74;76.60;103069.41;122944;1105;104354;-76
2024/01/30 05:46:25;;;;;;;38.80;18.17;;;;;;;-3.77;76.82;103071.56;123105;1102;104328;-76
2024/01/30 05:48:56;;;;;;;40.83;18.10;;;;;;;-3.75;76.91;103064.08;123043;1102;104287;-76
2024/01/30 05:51:27;;;;;;;37.43;17.47;;;;;;;-3.67;77.47;103069.49;123400;1102;104357;-76
2024/01/30 05:53:59;;;;;;;39.97;19.40;;;;;;;-3.53;77.16;103060.16;123040;1102;104418;-75
2024/01/30 05:56:30;;;;;;;39.90;19.07;;;;;;;-3.40;78.38;103060.13;123456;1102;104226;-76
2024/01/30 05:59:02;;;;;;;36.30;17.70;;;;;;;-3.25;77.99;103057.02;123464;1105;104691;-76
2024/01/30 06:01:33;;;;;;;39.07;19.00;;;;;;;-3.21;78.17;103051.58;123277;1102;104284;-76
2024/01/30 06:04:04;;;;;;;40.80;18.77;;;;;;;-3.10;78.04;103058.09;123300;1102;104255;-76
2024/01/30 06:06:35;;;;;;;36.57;18.03;;;;;;;-3.00;78.09;103062.81;123416;1103;104374;-76
2024/01/30 06:09:08;;;;;;;37.55;17.10;;;;;;;-2.93;78.48;103068.96;123321;1102;104417;-76
2024/01/30 06:11:40;;;;;;;42.60;20.27;;;;;;;-2.95;77.60;103060.11;123606;1101;104660;-76
2024/01/30 06:14:11;;;;;;;43.47;20.83;;;;;;;-2.93;77.83;103063.82;123286;1102;104255;-76
2024/01/30 06:16:42;;;;;;;41.27;19.93;;;;;;;-2.91;77.40;103064.94;123110;1102;104233;-76
2024/01/30 06:19:13;;;;;;;40.43;19.80;;;;;;;-2.89;77.84;103062.56;123836;1102;104326;-76
2024/01/30 06:21:50;;;;;;;40.63;19.63;;;;;;;-2.87;77.71;103062.77;123686;1102;102664;-76
2024/01/30 06:24:22;;;;;;;41.27;20.30;;;;;;;-2.84;77.66;103066.65;123955;1102;104182;-76
2024/01/30 06:26:53;;;;;;;43.17;21.83;;;;;;;-2.79;78.19;103077.53;123727;1102;104261;-76
2024/01/30 06:29:24;;;;;;;47.10;24.30;;;;;;;-2.76;77.05;103072.79;124439;1102;102351;-76
2024/01/30 06:31:55;;;;;;;52.13;26.40;;;;;;;-2.75;78.06;103069.50;124360;1102;104367;-76
2024/01/30 06:34:27;;;;;;;48.27;22.30;;;;;;;-2.74;77.86;103069.70;124184;1102;104220;-76
2024/01/30 06:37:12;;;;;;;47.63;23.80;;;;;;;-2.67;77.27;103066.27;124288;1103;104169;-76
2024/01/30 06:39:53;;;;;;;45.63;22.73;;;;;;;-2.56;78.30;103063.44;124111;1105;104335;-77
2024/01/30 06:42:27;;;;;;;46.30;22.70;;;;;;;-2.46;77.66;103057.86;124189;1103;104169;-76
2024/01/30 06:44:59;;;;;;;46.33;22.55;;;;;;;-2.39;77.69;103063.04;124177;1105;104240;-77
2024/01/30 06:47:30;;;;;;;44.67;23.90;;;;;;;-2.35;77.91;103066.95;124269;1102;104248;-76
2024/01/30 06:50:03;;;;;;;49.27;25.93;;;;;;;-2.31;78.15;103068.26;124193;1102;104098;-75
2024/01/30 06:52:34;;;;;;;60.30;30.47;;;;;;;-2.29;77.90;103067.73;124047;1102;104175;-75
2024/01/30 06:55:06;;;;;;;46.25;23.90;;;;;;;-2.26;78.01;103065.56;124105;1102;104248;-75
2024/01/30 06:57:39;;;;;;;52.37;26.10;;;;;;;-2.21;77.77;103059.34;123897;1102;104730;-75
2024/01/30 07:00:13;;;;;;;47.37;25.23;;;;;;;-2.12;78.30;103058.66;123866;1102;104176;-75
2024/01/30 07:02:47;;;;;;;48.60;23.57;;;;;;;-2.02;78.58;103062.60;124186;1102;102188;-74
2024/01/30 07:05:19;;;;;;;48.93;20.90;;;;;;;-1.89;78.41;103052.20;124299;1102;102551;-75
2024/01/30 07:07:51;;;;;;;46.57;23.03;;;;;;;-1.81;78.54;103051.55;124288;1103;104212;-75
2024/01/30 07:10:22;;;;;;;47.47;22.37;;;;;;;-1.76;77.94;103048.60;124450;1102;103746;-75
2024/01/30 07:12:53;;;;;;;44.63;21.90;;;;;;;-1.63;78.63;103044.28;124347;1102;104001;-74
2024/01/30 07:15:35;;;;;;;48.63;23.13;;;;;;;-1.53;78.94;103041.19;123955;1102;102943;-74
2024/01/30 07:18:13;;;;;;;71.40;27.67;;;;;;;-1.38;78.75;103039.62;125595;1102;103164;-75
2024/01/30 07:20:49;;;;;;;78.73;29.83;;;;;;;-1.25;78.39;103040.38;125646;1102;102139;-75
2024/01/30 07:23:20;;;;;;;69.33;27.63;;;;;;;-1.14;79.45;103040.08;125704;1102;102848;-75
2024/01/30 07:25:52;;;;;;;57.37;24.57;;;;;;;-1.05;79.04;103037.69;125724;1102;102775;-75
2024/01/30 07:28:23;;;;;;;42.17;20.17;;;;;;;-0.99;78.12;103038.44;125782;1102;102645;-75
2024/01/30 07:30:55;;;;;;;39.30;18.60;;;;;;;-0.96;78.50;103037.91;125687;1102;102646;-75
2024/01/30 07:33:27;;;;;;;41.20;20.10;;;;;;;-0.92;78.27;103038.48;125823;1102;101764;-75
2024/01/30 07:35:58;;;;;;;39.95;20.30;;;;;;;-0.84;78.45;103038.47;124878;1102;104769;-75
2024/01/30 07:38:34;;;;;;;41.23;20.70;;;;;;;-0.85;78.38;103034.07;123960;1102;102189;-75
2024/01/30 07:41:05;;;;;;;40.83;21.10;;;;;;;-0.83;78.40;103032.59;124257;1103;104358;-74
2024/01/30 07:43:45;;;;;;;45.17;20.30;;;;;;;-0.81;78.25;103032.05;123607;1102;102252;-74
2024/01/30 07:46:17;;;;;;;49.23;22.37;;;;;;;-0.76;78.40;103032.61;123549;1105;104252;-75
2024/01/30 07:48:48;;;;;;;42.37;21.87;;;;;;;-0.71;78.07;103028.02;123720;1102;105642;-74
2024/01/30 07:51:19;;;;;;;49.25;23.90;;;;;;;-0.64;78.48;103023.79;123664;1102;104358;-73
2024/01/30 07:53:54;;;;;;;47.83;24.63;;;;;;;-0.52;78.53;103018.26;123929;1102;102513;-74
2024/01/30 07:56:25;;;;;;;50.73;26.90;;;;;;;-0.39;79.07;103019.92;124219;1102;104249;-73
2024/01/30 07:58:59;;;;;;;45.73;24.40;;;;;;;-0.26;78.40;103017.14;123809;1102;104210;-74
2024/01/30 08:01:33;;;;;;;51.83;27.20;;;;;;;-0.10;78.53;103014.72;123914;1105;104373;-75
2024/01/30 08:04:04;;;;;;;49.73;26.80;;;;;;;0.06;79.12;103016.53;123927;1103;104357;-74
2024/01/30 08:06:40;;;;;;;50.15;26.45;;;;;;;0.22;79.53;103007.28;123974;1102;104189;-74
2024/01/30 08:09:18;;;;;;;49.87;25.27;;;;;;;0.38;79.11;103007.41;124177;1102;102222;-74
2024/01/30 08:11:52;;;;;;;49.33;25.80;;;;;;;0.53;78.86;103005.67;123922;1105;103859;-75
2024/01/30 08:14:24;;;;;;;50.23;25.60;;;;;;;0.64;78.81;102987.19;124278;1106;104364;-74
2024/01/30 08:16:55;;;;;;;43.90;23.90;;;;;;;0.79;79.25;102992.27;124192;1102;104300;-74
2024/01/30 08:19:28;;;;;;;55.20;26.70;;;;;;;0.93;78.89;102994.77;124032;1102;102276;-74
2024/01/30 08:22:00;;;;;;;51.40;25.40;;;;;;;1.07;78.66;102988.58;124428;1102;104284;-75
2024/01/30 08:24:32;;;;;;;;;;;;;;;1.15;77.69;102979.11;124118;1102;103298;-74
2024/01/30 08:27:05;;;;;;;54.60;25.47;;;;;;;1.15;78.23;102980.02;123795;1102;104204;-74
2024/01/30 08:29:36;;;;;;;48.37;25.97;;;;;;;1.21;78.12;102978.13;124227;1102;104233;-75
2024/01/30 08:32:09;;;;;;;46.55;24.30;;;;;;;1.28;77.95;102974.59;124362;1102;104258;-75
2024/01/30 08:34:40;;;;;;;50.10;26.03;;;;;;;1.36;78.19;102970.28;123985;1102;104233;-75
2024/01/30 08:37:11;;;;;;;56.03;27.53;;;;;;;1.39;77.49;102968.94;124134;1102;102701;-75
2024/01/30 08:39:45;;;;;;;54.40;27.87;;;;;;;1.41;77.94;102975.20;123819;1102;104319;-75
2024/01/30 08:42:22;;;;;;;55.27;27.37;;;;;;;1.41;77.60;102972.61;123938;1102;106109;-75
2024/01/30 08:44:54;;;;;;;54.57;28.40;;;;;;;1.47;78.20;102969.80;124014;1101;104344;-75
2024/01/30 08:47:27;;;;;;;49.60;27.25;;;;;;;1.56;77.88;102968.24;124336;1102;104293;-74
2024/01/30 08:49:59;;;;;;;51.60;25.35;;;;;;;1.66;77.70;102962.41;124058;1103;104233;-75
2024/01/30 08:52:30;;;;;;;55.97;26.30;;;;;;;1.82;77.37;102969.29;124190;1105;103543;-75
2024/01/30 08:55:01;;;;;;;54.03;27.27;;;;;;;1.93;77.80;102964.55;123952;1102;104369;-75
2024/01/30 08:57:33;;;;;;;54.70;27.65;;;;;;;2.03;77.77;102966.47;123762;1102;104185;-75
2024/01/30 09:00:06;;;;;;;49.50;26.63;;;;;;;2.10;77.78;102957.69;123989;1102;103017;-74
2024/01/30 09:02:37;;;;;;;53.52;27.75;;;;;;;2.16;77.02;102959.27;124046;1102;103199;-76
2024/01/30 09:05:11;;;;;;;52.73;27.33;;;;;;;2.24;76.56;102956.61;123651;1101;102535;-76
2024/01/30 09:07:42;;;;;;;50.40;27.23;;;;;;;2.29;77.48;102947.65;123643;1101;103631;-75
2024/01/30 09:10:17;;;;;;;61.05;29.20;;;;;;;2.35;76.63;102937.95;123492;1102;104175;-75
2024/01/30 09:12:49;;;;;;;55.63;29.77;;;;;;;2.46;77.64;102944.29;123566;1102;104185;-75
2024/01/30 09:15:20;;;;;;;55.27;29.63;;;;;;;2.53;77.71;102935.52;123617;1105;102601;-75
2024/01/30 09:17:52;;;;;;;46.57;26.43;;;;;;;2.60;77.66;102937.99;123536;1102;103799;-75
2024/01/30 09:20:25;;;;;;;54.20;27.10;;;;;;;2.73;77.67;102917.81;123373;1105;104297;-75
2024/01/30 09:22:57;;;;;;;46.92;24.95;;;;;;;2.88;77.48;102924.63;123517;1102;104178;-74
2024/01/30 09:25:28;;;;;;;50.55;26.05;;;;;;;3.01;77.39;102915.55;123483;1102;104265;-75
2024/01/30 09:28:02;;;;;;;49.53;25.10;;;;;;;3.18;77.74;102919.87;123712;1102;104245;-75
2024/01/30 09:30:32;;;;;;;;;;;;;;;3.31;77.05;102924.68;123641;1102;104249;-75
2024/01/30 09:33:03;;;;;;;50.50;26.90;;;;;;;3.41;78.17;102918.01;123634;1102;104667;-74
2024/01/30 09:35:38;;;;;;;36.47;17.20;;;;;;;3.47;76.88;102916.80;123497;1102;104179;-75
2024/01/30 09:38:14;;;;;;;32.37;16.07;;;;;;;3.55;76.79;102919.43;123976;1103;103665;-76
2024/01/30 09:40:46;;;;;;;31.15;15.35;;;;;;;3.62;76.95;102927.85;123910;1102;104261;-75
2024/01/30 09:43:26;;;;;;;34.63;14.97;;;;;;;3.68;77.32;102920.69;123895;1102;104255;-75
2024/01/30 09:46:00;;;;;;;32.90;14.97;;;;;;;3.80;77.60;102916.72;123962;1103;102653;-75
2024/01/30 09:48:33;;;;;;;32.77;16.50;;;;;;;3.87;76.96;102916.59;123737;1102;104226;-74
2024/01/30 09:51:08;;;;;;;33.23;15.30;;;;;;;3.92;76.83;102909.26;123807;1102;104392;-75
2024/01/30 09:53:40;;;;;;;36.77;15.90;;;;;;;3.93;75.92;102900.72;123874;1102;102762;-75
2024/01/30 09:56:15;;;;;;;33.93;16.33;;;;;;;3.96;76.94;102901.94;124010;1102;101913;-75
2024/01/30 09:58:51;;;;;;;33.93;15.93;;;;;;;4.03;76.57;102899.95;123863;1105;104189;-75
2024/01/30 10:01:23;;;;;;;35.03;15.87;;;;;;;4.14;77.17;102894.14;123906;1102;104322;-75
2024/01/30 10:03:54;;;;;;;35.37;16.00;;;;;;;4.24;77.21;102893.37;124219;1102;103168;-75
2024/01/30 10:06:29;;;;;;;32.20;15.47;;;;;;;4.25;76.14;102884.81;124003;1102;104153;-75
2024/01/30 10:09:07;;;;;;;30.63;14.07;;;;;;;4.23;75.96;102879.47;123830;1102;104214;-75
2024/01/30 10:11:36;;;;;;;;;;;;;;;4.23;75.55;102876.87;123934;1102;104316;-75
2024/01/30 10:14:08;;;;;;;29.67;12.87;;;;;;;4.26;75.43;102886.66;124099;1105;104226;-75
2024/01/30 10:16:39;;;;;;;30.47;13.93;;;;;;;4.16;74.83;102877.05;123792;1102;104254;-75
2024/01/30 10:19:13;;;;;;;29.53;14.27;;;;;;;4.18;75.14;102867.70;124002;1105;102843;-74
2024/01/30 10:21:44;;;;;;;34.30;14.47;;;;;;;4.21;75.75;102862.81;123864;1102;104741;-75
2024/01/30 10:24:19;;;;;;;33.70;14.57;;;;;;;4.26;76.09;102865.87;123861;1105;103490;-76
2024/01/30 10:26:51;;;;;;;32.10;14.37;;;;;;;4.35;76.28;102861.58;123994;1102;102933;-75
2024/01/30 10:29:22;;;;;;;29.77;13.30;;;;;;;4.39;75.60;102861.09;123963;1105;104092;-75
2024/01/30 10:32:07;;;;;;;29.73;12.47;;;;;;;4.45;75.70;102865.99;123786;1105;104191;-75
2024/01/30 10:34:42;;;;;;;27.50;13.05;;;;;;;4.47;75.24;102856.66;123897;1105;102679;-75
2024/01/30 10:37:15;;;;;;;28.73;12.80;;;;;;;4.52;75.89;102850.24;123758;1103;104296;-75
2024/01/30 10:39:48;;;;;;;31.60;13.00;;;;;;;4.55;75.41;102842.73;123780;1102;102220;-74
2024/01/30 10:42:20;;;;;;;29.13;13.20;;;;;;;4.50;74.90;102843.95;124091;1102;104271;-76
2024/01/30 10:45:00;;;;;;;28.53;13.87;;;;;;;4.49;74.64;102837.84;123851;1105;102478;-75
2024/01/30 10:47:36;;;;;;;28.43;12.33;;;;;;;4.50;75.08;102829.30;125697;1102;102510;-75
2024/01/30 10:50:12;;;;;;;32.67;13.67;;;;;;;4.51;74.49;102830.20;125547;1102;104385;-75
2024/01/30 10:52:44;;;;;;;29.37;13.83;;;;;;;4.50;74.66;102831.89;125704;1102;102761;-75
2024/01/30 10:55:17;;;;;;;32.87;13.87;;;;;;;4.48;74.01;102828.20;125735;1102;102532;-74
2024/01/30 10:57:49;;;;;;;31.63;14.03;;;;;;;4.38;72.85;102824.55;125460;1102;102556;-76
2024/01/30 11:00:24;;;;;;;28.60;14.47;;;;;;;4.34;74.31;102822.44;125356;1102;102462;-75
2024/01/30 11:02:55;;;;;;;33.47;14.50;;;;;;;4.36;74.42;102821.80;125615;1102;102706;-76
2024/01/30 11:05:30;;;;;;;30.70;14.40;;;;;;;4.41;74.66;102814.45;124026;1102;104267;-75
2024/01/30 11:08:13;;;;;;;29.97;14.80;;;;;;;4.44;74.27;102815.69;125888;1102;103179;-74
2024/01/30 11:10:55;;;;;;;28.60;13.90;;;;;;;4.48;74.18;102811.70;125668;1102;102629;-75
2024/01/30 11:13:29;;;;;;;28.83;14.10;;;;;;;4.54;74.54;102809.70;125836;1102;102582;-75
2024/01/30 11:16:05;;;;;;;28.03;12.87;;;;;;;4.57;74.14;102804.79;125373;1101;102293;-75
2024/01/30 11:18:38;;;;;;;25.47;11.50;;;;;;;4.56;74.26;102802.05;125193;1102;102682;-75